Time;durP1;ratioP1;P1;durP2;ratioP2;P2;SDS_P1;SDS_P2;PMS_P1;PMS_P2;Temp;Humidity;BMP_temperature;BMP_pressure;BME280_temperature;BME280_humidity;BME280_pressure;Samples;Min_cycle;Max_cycle;Signal;HPM_P1;HPM_P2
2023/03/10 00:00:43;;;;;;;20.40;10.93;;;1.00;99.90;;;;;;5075503;28;20076;-72
2023/03/10 00:03:09;;;;;;;28.90;16.50;;;1.30;99.90;;;;;;5071775;28;20060;-71
2023/03/10 00:05:36;;;;;;;28.67;16.50;;;1.10;99.90;;;;;;5078520;28;20074;-72
2023/03/10 00:08:02;;;;;;;29.35;17.10;;;1.00;99.90;;;;;;5077848;28;20048;-72
2023/03/10 00:10:28;;;;;;;26.50;15.80;;;1.00;99.90;;;;;;5065550;28;20044;-71
2023/03/10 00:12:54;;;;;;;27.50;16.27;;;1.00;99.90;;;;;;5077287;28;20036;-73
2023/03/10 00:15:20;;;;;;;30.08;16.98;;;1.00;99.90;;;;;;5072184;28;20074;-75
2023/03/10 00:17:51;;;;;;;21.58;12.00;;;1.00;99.90;;;;;;5079245;28;20060;-77
2023/03/10 00:20:16;;;;;;;28.95;18.05;;;1.00;99.90;;;;;;5084179;28;20106;-75
2023/03/10 00:22:42;;;;;;;30.00;16.88;;;1.00;99.90;;;;;;5083674;28;20052;-76
2023/03/10 00:25:09;;;;;;;27.33;15.52;;;1.00;99.90;;;;;;5071403;28;20051;-76
2023/03/10 00:27:35;;;;;;;25.92;15.95;;;1.10;99.90;;;;;;5082119;28;20044;-76
2023/03/10 00:30:01;;;;;;;25.25;15.23;;;1.00;99.90;;;;;;5077612;28;20075;-77
2023/03/10 00:32:27;;;;;;;34.15;18.55;;;0.90;99.90;;;;;;5086570;28;20040;-81
2023/03/10 00:34:53;;;;;;;32.83;17.70;;;1.10;99.90;;;;;;5083607;28;20053;-80
2023/03/10 00:37:18;;;;;;;32.72;18.48;;;0.90;99.90;;;;;;5074279;28;20056;-79
2023/03/10 00:39:48;;;;;;;38.47;20.70;;;0.90;99.90;;;;;;5079008;28;20491;-78
2023/03/10 00:42:14;;;;;;;33.75;19.50;;;1.10;99.90;;;;;;5076005;28;20040;-73
2023/03/10 00:44:40;;;;;;;32.15;18.65;;;1.20;99.90;;;;;;5066732;28;20453;-76
2023/03/10 00:47:06;;;;;;;38.97;21.92;;;0.90;99.90;;;;;;5071942;28;20090;-79
2023/03/10 00:49:31;;;;;;;39.47;21.65;;;0.90;99.90;;;;;;5058808;28;20044;-73
2023/03/10 00:51:57;;;;;;;41.75;21.70;;;0.90;99.90;;;;;;5082538;28;20044;-71
2023/03/10 00:54:23;;;;;;;42.45;22.63;;;0.80;99.90;;;;;;5088958;28;20499;-70
2023/03/10 00:56:49;;;;;;;41.67;23.25;;;0.90;99.90;;;;;;5059492;28;20044;-71
2023/03/10 00:59:15;;;;;;;36.08;20.40;;;0.80;99.90;;;;;;5076758;28;20094;-73
2023/03/10 01:01:41;;;;;;;36.95;20.73;;;0.90;99.90;;;;;;5078157;28;20059;-72
2023/03/10 01:04:11;;;;;;;43.30;24.63;;;1.10;99.90;;;;;;5075897;28;20055;-71
2023/03/10 01:06:37;;;;;;;40.63;22.38;;;0.90;99.90;;;;;;5073306;28;20400;-72
2023/03/10 01:09:04;;;;;;;42.55;24.45;;;0.80;99.90;;;;;;5076484;28;20097;-72
2023/03/10 01:11:30;;;;;;;42.00;24.30;;;0.80;99.90;;;;;;5078557;28;20490;-73
2023/03/10 01:13:58;;;;;;;42.53;24.80;;;0.80;99.90;;;;;;5081592;28;20040;-75
2023/03/10 01:16:24;;;;;;;46.08;25.42;;;1.00;99.90;;;;;;5076995;28;20055;-72
2023/03/10 01:18:50;;;;;;;41.75;24.58;;;0.90;99.90;;;;;;5077121;28;20052;-72
2023/03/10 01:21:22;;;;;;;37.67;22.33;;;0.90;99.90;;;;;;5088185;28;20052;-72
2023/03/10 01:23:48;;;;;;;33.10;19.58;;;1.70;99.90;;;;;;5075504;28;20049;-74
2023/03/10 01:26:14;;;;;;;39.97;22.90;;;0.90;99.90;;;;;;5063726;28;20052;-73
2023/03/10 01:28:39;;;;;;;33.60;19.88;;;1.00;99.90;;;;;;5074916;28;20088;-72
2023/03/10 01:31:06;;;;;;;38.33;21.35;;;0.90;99.90;;;;;;5068703;28;20044;-69
2023/03/10 01:33:34;;;;;;;36.53;21.73;;;0.90;99.90;;;;;;5062853;28;20123;-69
2023/03/10 01:36:01;;;;;;;35.30;20.40;;;0.90;99.90;;;;;;5074026;28;20076;-71
2023/03/10 01:38:26;;;;;;;37.45;21.20;;;0.90;99.90;;;;;;5072333;28;20051;-72
2023/03/10 01:40:52;;;;;;;29.92;17.45;;;0.90;99.90;;;;;;5080901;28;20033;-72
2023/03/10 01:43:38;;;;;;;36.03;21.00;;;0.90;99.90;;;;;;5078521;28;20045;-70
2023/03/10 01:46:39;;;;;;;33.90;19.15;;;0.90;99.90;;;;;;5098487;28;20048;-74
2023/03/10 01:49:24;;;;;;;32.80;18.00;;;0.80;99.90;;;;;;5097133;28;20052;-72
2023/03/10 01:52:01;;;;;;;30.98;19.05;;;0.90;99.90;;;;;;5081554;28;20044;-73
2023/03/10 01:54:39;;;;;;;34.47;19.63;;;0.90;99.90;;;;;;5076828;28;20040;-71
2023/03/10 01:57:06;;;;;;;34.67;19.92;;;0.80;99.90;;;;;;5074276;28;20057;-73
2023/03/10 01:59:33;;;;;;;39.05;21.75;;;0.90;99.90;;;;;;5078203;28;20040;-74
2023/03/10 02:02:00;;;;;;;38.25;20.33;;;0.80;99.90;;;;;;5069973;28;20435;-73
2023/03/10 02:04:44;;;;;;;35.40;20.50;;;1.10;99.90;;;;;;5080347;28;20048;-71
2023/03/10 02:07:12;;;;;;;32.72;18.10;;;0.80;99.90;;;;;;5077073;28;20055;-72
2023/03/10 02:09:42;;;;;;;30.08;16.20;;;0.80;99.90;;;;;;5072440;28;20052;-73
2023/03/10 02:12:09;;;;;;;32.22;18.73;;;0.80;99.90;;;;;;5076377;28;20481;-73
2023/03/10 02:14:35;;;;;;;36.95;20.88;;;0.80;99.90;;;;;;5089149;28;20035;-75
2023/03/10 02:17:04;;;;;;;35.53;19.02;;;0.80;99.90;;;;;;5079165;28;20052;-75
2023/03/10 02:19:30;;;;;;;29.30;16.13;;;0.80;99.90;;;;;;5081922;28;20059;-75
2023/03/10 02:22:15;;;;;;;33.17;17.65;;;1.30;99.90;;;;;;5079615;28;20048;-74
2023/03/10 02:24:54;;;;;;;33.42;18.50;;;0.80;99.90;;;;;;5078436;28;20055;-74
2023/03/10 02:27:26;;;;;;;34.83;17.98;;;0.80;99.90;;;;;;5073915;28;20050;-76
2023/03/10 02:30:00;;;;;;;35.03;19.80;;;1.80;99.90;;;;;;5075989;28;20046;-74
2023/03/10 02:32:29;;;;;;;32.05;18.55;;;0.80;99.90;;;;;;5075501;28;20048;-81
2023/03/10 02:34:55;;;;;;;37.45;20.48;;;0.80;99.90;;;;;;5080514;28;20083;-76
2023/03/10 02:37:24;;;;;;;30.25;17.08;;;0.80;99.90;;;;;;5065374;28;20075;-77
2023/03/10 02:39:50;;;;;;;35.08;17.67;;;1.70;99.90;;;;;;5075848;28;20056;-78
2023/03/10 02:42:17;;;;;;;25.27;13.55;;;1.20;99.90;;;;;;5070542;28;20047;-75
2023/03/10 02:44:45;;;;;;;32.90;19.02;;;0.90;99.90;;;;;;5080354;28;20088;-75
2023/03/10 02:47:11;;;;;;;30.52;17.77;;;0.80;99.90;;;;;;5076041;28;20075;-76
2023/03/10 02:49:37;;;;;;;31.10;18.25;;;0.90;99.90;;;;;;5077347;28;20460;-77
2023/03/10 02:52:07;;;;;;;34.35;19.38;;;0.90;99.90;;;;;;5065245;28;20076;-74
2023/03/10 02:54:39;;;;;;;35.95;19.55;;;0.90;99.90;;;;;;5077045;28;20051;-73
2023/03/10 02:57:05;;;;;;;33.60;18.87;;;0.80;99.90;;;;;;5081870;28;20044;-77
2023/03/10 02:59:30;;;;;;;36.20;20.00;;;0.80;99.90;;;;;;5074830;28;20047;-77
2023/03/10 03:01:56;;;;;;;39.03;21.20;;;0.80;99.90;;;;;;5076366;28;20491;-75
2023/03/10 03:04:22;;;;;;;37.63;22.90;;;0.80;99.90;;;;;;5073734;28;20044;-72
2023/03/10 03:06:47;;;;;;;40.33;22.30;;;0.90;99.90;;;;;;5082432;28;20048;-76
2023/03/10 03:09:13;;;;;;;37.75;21.15;;;1.60;99.90;;;;;;5073321;28;20048;-78
2023/03/10 03:11:39;;;;;;;35.33;20.83;;;0.90;99.90;;;;;;5074501;28;20087;-75
2023/03/10 03:14:06;;;;;;;39.70;21.27;;;0.90;99.90;;;;;;5071540;28;20480;-74
2023/03/10 03:16:32;;;;;;;39.13;22.88;;;0.90;99.90;;;;;;5077393;28;20053;-73
2023/03/10 03:18:58;;;;;;;39.97;21.98;;;0.90;99.90;;;;;;5076759;28;20048;-73
2023/03/10 03:21:24;;;;;;;40.00;23.35;;;0.90;99.90;;;;;;5073802;28;20106;-74
2023/03/10 03:23:50;;;;;;;43.63;23.98;;;0.90;99.90;;;;;;5077705;28;21921;-73
2023/03/10 03:26:22;;;;;;;43.00;24.38;;;0.90;99.90;;;;;;5060726;28;20048;-74
2023/03/10 03:28:48;;;;;;;36.53;20.75;;;0.90;99.90;;;;;;5083370;28;20055;-76
2023/03/10 03:31:15;;;;;;;44.10;24.35;;;0.90;99.90;;;;;;5072694;28;20054;-75
2023/03/10 03:33:41;;;;;;;42.78;25.00;;;0.90;99.90;;;;;;5073656;28;20086;-79
2023/03/10 03:36:07;;;;;;;42.72;24.50;;;1.20;99.90;;;;;;5078705;28;20048;-76
2023/03/10 03:38:33;;;;;;;43.85;24.83;;;0.90;99.90;;;;;;5077426;28;20557;-76
2023/03/10 03:40:59;;;;;;;31.55;17.60;;;1.40;99.90;;;;;;5086352;28;20279;-72
2023/03/10 03:43:26;;;;;;;44.33;24.58;;;1.30;99.90;;;;;;5074096;28;20392;-73
2023/03/10 03:45:52;;;;;;;42.47;23.33;;;0.90;99.90;;;;;;5080761;28;20072;-72
2023/03/10 03:48:18;;;;;;;38.75;21.98;;;0.90;99.90;;;;;;5075167;28;20040;-72
2023/03/10 03:50:43;;;;;;;41.30;25.08;;;1.10;99.90;;;;;;5082063;28;20075;-72
2023/03/10 03:53:09;;;;;;;46.53;25.42;;;0.90;99.90;;;;;;5076982;28;20079;-72
2023/03/10 03:55:35;;;;;;;44.80;24.08;;;0.90;99.90;;;;;;5087020;28;20117;-74
2023/03/10 03:58:00;;;;;;;45.13;25.65;;;0.90;99.90;;;;;;5070829;28;20036;-73
2023/03/10 04:00:26;;;;;;;38.88;21.95;;;1.00;99.90;;;;;;5071092;28;20044;-72
2023/03/10 04:02:52;;;;;;;43.15;23.73;;;1.00;99.90;;;;;;5083887;28;20377;-73
2023/03/10 04:05:18;;;;;;;37.85;22.08;;;0.90;99.90;;;;;;5079322;28;20090;-74
2023/03/10 04:07:45;;;;;;;45.30;24.40;;;0.90;99.90;;;;;;5074431;28;20044;-75
2023/03/10 04:10:14;;;;;;;45.00;24.35;;;0.90;99.90;;;;;;5075007;28;20052;-74
2023/03/10 04:12:40;;;;;;;45.17;24.40;;;0.90;99.90;;;;;;5073436;28;20040;-73
2023/03/10 04:15:07;;;;;;;40.13;21.85;;;1.00;99.90;;;;;;5072934;28;20392;-74
2023/03/10 04:17:33;;;;;;;37.65;20.80;;;0.90;99.90;;;;;;5079781;28;20052;-75
2023/03/10 04:19:59;;;;;;;37.38;21.33;;;0.90;99.90;;;;;;5075125;28;20479;-75
2023/03/10 04:22:24;;;;;;;37.30;20.00;;;0.90;99.90;;;;;;5073082;28;20133;-74
2023/03/10 04:24:50;;;;;;;36.85;21.77;;;0.90;99.90;;;;;;5078030;28;20040;-74
2023/03/10 04:27:16;;;;;;;34.40;19.85;;;0.90;99.90;;;;;;5082599;28;20102;-74
2023/03/10 04:29:42;;;;;;;38.83;21.25;;;0.90;99.90;;;;;;5083879;28;20512;-75
2023/03/10 04:32:07;;;;;;;31.27;17.95;;;0.90;99.90;;;;;;5071686;28;20052;-74
2023/03/10 04:34:33;;;;;;;35.53;20.52;;;0.90;99.90;;;;;;5067536;28;20380;-73
2023/03/10 04:36:59;;;;;;;33.80;19.25;;;0.90;99.90;;;;;;5066297;28;20086;-73
2023/03/10 04:39:25;;;;;;;26.67;15.27;;;0.90;99.90;;;;;;5076976;28;20054;-73
2023/03/10 04:41:50;;;;;;;28.75;16.85;;;0.90;99.90;;;;;;5077540;28;20043;-74
2023/03/10 04:44:16;;;;;;;33.90;18.88;;;0.90;99.90;;;;;;5067939;28;20048;-74
2023/03/10 04:46:42;;;;;;;28.15;16.88;;;0.90;99.90;;;;;;5079182;28;20043;-74
2023/03/10 04:49:08;;;;;;;29.45;16.45;;;0.90;99.90;;;;;;5072841;28;20036;-73
2023/03/10 04:51:33;;;;;;;23.73;13.65;;;0.90;99.90;;;;;;5064884;28;20438;-74
2023/03/10 04:54:00;;;;;;;27.55;16.33;;;0.90;99.90;;;;;;5074804;28;20044;-73
2023/03/10 04:56:25;;;;;;;21.52;12.60;;;0.90;99.90;;;;;;5076726;28;20060;-73
2023/03/10 04:58:51;;;;;;;27.70;15.82;;;1.10;99.90;;;;;;5064018;28;20517;-73
2023/03/10 05:01:17;;;;;;;30.40;17.80;;;0.90;99.90;;;;;;5080850;28;20048;-74
2023/03/10 05:03:43;;;;;;;27.77;16.13;;;0.90;99.90;;;;;;5069164;28;20052;-74
2023/03/10 05:06:17;;;;;;;19.98;10.15;;;0.90;99.90;;;;;;5081873;28;20044;-73
2023/03/10 05:08:42;;;;;;;27.20;16.42;;;0.90;99.90;;;;;;5082027;28;20095;-73
2023/03/10 05:11:08;;;;;;;29.52;16.92;;;0.90;99.90;;;;;;5077757;28;20080;-74
2023/03/10 05:13:34;;;;;;;31.40;16.65;;;0.80;99.90;;;;;;5082995;28;20047;-73
2023/03/10 05:16:00;;;;;;;30.35;17.58;;;0.80;99.90;;;;;;5087014;28;20052;-74
2023/03/10 05:18:26;;;;;;;28.83;15.90;;;1.10;99.90;;;;;;5077357;28;20468;-74
2023/03/10 05:20:53;;;;;;;28.80;16.15;;;0.80;99.90;;;;;;5075791;28;20473;-75
2023/03/10 05:23:19;;;;;;;30.70;17.10;;;1.10;99.90;;;;;;5076141;28;20107;-73
2023/03/10 05:25:45;;;;;;;32.53;16.65;;;0.80;99.90;;;;;;5082016;28;20491;-75
2023/03/10 05:28:11;;;;;;;28.48;16.10;;;0.80;99.90;;;;;;5068009;28;20052;-75
2023/03/10 05:30:37;;;;;;;32.65;18.27;;;0.90;99.90;;;;;;5079560;28;20052;-75
2023/03/10 05:33:02;;;;;;;31.92;17.00;;;0.90;99.90;;;;;;5085887;28;20068;-73
2023/03/10 05:35:28;;;;;;;30.77;15.88;;;1.00;99.90;;;;;;5080880;28;20041;-75
2023/03/10 05:37:54;;;;;;;32.33;18.02;;;0.90;99.90;;;;;;5076019;28;20032;-75
2023/03/10 05:40:20;;;;;;;36.75;19.58;;;0.80;99.90;;;;;;5079799;28;20049;-76
2023/03/10 05:42:47;;;;;;;28.35;16.38;;;0.80;99.90;;;;;;5080448;28;20047;-77
2023/03/10 05:45:13;;;;;;;27.88;16.33;;;0.80;99.90;;;;;;5080337;28;20089;-77
2023/03/10 05:47:39;;;;;;;35.05;19.48;;;0.90;99.90;;;;;;5073983;28;20059;-75
2023/03/10 05:50:06;;;;;;;31.73;17.63;;;0.90;99.90;;;;;;5060581;28;20048;-77
2023/03/10 05:52:36;;;;;;;33.30;17.98;;;0.90;99.90;;;;;;5078263;28;20059;-78
2023/03/10 05:55:02;;;;;;;27.67;15.45;;;0.80;99.90;;;;;;5079956;28;20713;-77
2023/03/10 05:57:27;;;;;;;28.88;17.00;;;0.90;99.90;;;;;;5075625;28;20055;-77
2023/03/10 05:59:53;;;;;;;30.25;16.50;;;1.00;99.90;;;;;;5074417;28;20135;-76
2023/03/10 06:02:19;;;;;;;22.83;11.55;;;0.90;99.90;;;;;;5080041;28;20048;-73
2023/03/10 06:04:44;;;;;;;28.45;16.33;;;0.90;99.90;;;;;;5078296;28;20078;-78
2023/03/10 06:07:10;;;;;;;13.93;7.82;;;0.90;99.90;;;;;;5059539;28;20049;-79
2023/03/10 06:09:36;;;;;;;27.25;15.93;;;1.00;99.90;;;;;;5074493;28;20044;-78
2023/03/10 06:12:02;;;;;;;25.60;14.80;;;1.00;99.90;;;;;;5071050;28;20427;-80
2023/03/10 06:14:27;;;;;;;31.40;18.02;;;0.90;99.90;;;;;;5084526;28;20349;-78
2023/03/10 06:16:54;;;;;;;28.95;16.02;;;1.10;99.90;;;;;;5060299;28;20087;-78
2023/03/10 06:19:21;;;;;;;34.35;19.98;;;1.70;99.90;;;;;;5081591;28;20480;-79
2023/03/10 06:21:47;;;;;;;30.67;16.83;;;0.90;99.90;;;;;;5077356;28;20040;-79
2023/03/10 06:24:13;;;;;;;33.72;18.70;;;0.90;99.90;;;;;;5082377;28;20075;-79
2023/03/10 06:26:39;;;;;;;33.13;18.23;;;1.00;99.90;;;;;;5084337;28;20103;-79
2023/03/10 06:29:06;;;;;;;34.67;18.67;;;0.90;99.90;;;;;;5077737;28;20099;-80
2023/03/10 06:31:33;;;;;;;32.38;18.77;;;0.90;99.90;;;;;;5079136;28;20043;-81
2023/03/10 06:33:58;;;;;;;35.65;19.10;;;0.90;99.90;;;;;;5080672;28;20094;-81
2023/03/10 06:36:26;;;;;;;35.67;20.90;;;0.90;99.90;;;;;;5074426;28;20040;-79
2023/03/10 06:38:53;;;;;;;38.47;21.38;;;0.80;99.90;;;;;;5073623;28;20036;-81
2023/03/10 06:41:20;;;;;;;38.35;20.95;;;1.40;99.90;;;;;;5073415;28;20538;-79
2023/03/10 06:43:46;;;;;;;42.38;23.73;;;0.90;99.90;;;;;;5074910;28;20049;-80
2023/03/10 06:46:13;;;;;;;38.90;21.20;;;0.90;99.90;;;;;;5075673;28;20040;-78
2023/03/10 06:48:40;;;;;;;38.38;20.45;;;1.30;99.90;;;;;;5077092;28;20538;-78
2023/03/10 06:51:13;;;;;;;39.53;23.10;;;0.90;99.90;;;;;;5079264;28;20040;-82
2023/03/10 06:53:39;;;;;;;38.40;21.58;;;1.30;99.90;;;;;;5085124;28;20048;-77
2023/03/10 06:56:07;;;;;;;41.33;23.30;;;0.90;99.90;;;;;;5085221;28;20067;-78
2023/03/10 06:58:35;;;;;;;38.42;20.83;;;0.90;99.90;;;;;;5081931;28;20054;-77
2023/03/10 07:01:01;;;;;;;42.13;23.13;;;1.00;99.90;;;;;;5049513;28;20048;-75
2023/03/10 07:03:28;;;;;;;44.65;23.55;;;1.00;99.90;;;;;;5078345;28;20060;-82
2023/03/10 07:05:58;;;;;;;42.63;24.02;;;1.00;99.90;;;;;;5080353;28;20047;-76
2023/03/10 07:08:25;;;;;;;48.42;24.35;;;1.00;99.90;;;;;;5080140;28;20052;-77
2023/03/10 07:10:51;;;;;;;39.67;22.15;;;1.10;99.90;;;;;;5075263;28;20055;-78
2023/03/10 07:13:16;;;;;;;29.58;15.77;;;1.10;99.90;;;;;;5064234;28;20396;-76
2023/03/10 07:15:44;;;;;;;37.75;22.75;;;1.10;99.90;;;;;;5076296;28;21685;-80
2023/03/10 07:18:09;;;;;;;45.85;25.65;;;1.20;99.90;;;;;;5078473;28;20443;-76
2023/03/10 07:20:39;;;;;;;42.50;24.50;;;1.10;99.90;;;;;;5072155;28;20083;-76
2023/03/10 07:23:05;;;;;;;43.13;25.65;;;1.40;99.90;;;;;;5078041;28;20044;-79
2023/03/10 07:25:33;;;;;;;38.83;22.92;;;1.10;99.90;;;;;;5062773;28;20074;-79
2023/03/10 07:27:58;;;;;;;36.17;19.73;;;1.20;99.90;;;;;;5080725;28;20238;-77
2023/03/10 07:30:24;;;;;;;43.78;25.08;;;1.10;99.90;;;;;;5083485;28;20044;-80
2023/03/10 07:32:51;;;;;;;43.72;26.13;;;1.10;99.90;;;;;;5067813;28;20070;-82
2023/03/10 07:35:17;;;;;;;38.22;22.67;;;1.10;99.90;;;;;;5083724;28;20080;-77
2023/03/10 07:37:43;;;;;;;45.58;26.73;;;1.60;99.90;;;;;;5080532;28;20140;-78
2023/03/10 07:40:10;;;;;;;44.55;25.13;;;1.10;99.90;;;;;;5078072;28;20102;-80
2023/03/10 07:42:35;;;;;;;41.85;25.67;;;1.20;99.90;;;;;;5064019;28;20052;-81
2023/03/10 07:45:02;;;;;;;35.22;22.00;;;1.20;99.90;;;;;;5083842;28;20044;-80
2023/03/10 07:47:28;;;;;;;35.90;22.60;;;1.30;99.90;;;;;;5079853;28;20082;-78
2023/03/10 07:49:54;;;;;;;38.20;23.02;;;1.30;99.90;;;;;;5078624;28;20036;-78
2023/03/10 07:52:19;;;;;;;41.08;23.48;;;1.50;99.90;;;;;;5081849;28;20055;-77
2023/03/10 07:54:45;;;;;;;34.70;21.75;;;1.30;99.90;;;;;;5074586;28;20059;-78
2023/03/10 07:57:13;;;;;;;40.55;24.25;;;1.30;99.90;;;;;;5078352;28;20407;-79
2023/03/10 07:59:39;;;;;;;39.50;23.17;;;1.20;99.90;;;;;;5076794;28;20446;-79
2023/03/10 08:02:06;;;;;;;40.70;23.50;;;1.20;99.90;;;;;;5073381;28;20049;-78
2023/03/10 08:04:32;;;;;;;36.33;22.33;;;1.20;99.90;;;;;;5073640;28;20048;-79
2023/03/10 08:07:01;;;;;;;35.78;22.65;;;1.20;99.90;;;;;;5079783;28;20047;-79
2023/03/10 08:09:28;;;;;;;39.08;23.45;;;1.30;99.90;;;;;;5073670;28;20416;-77
2023/03/10 08:11:57;;;;;;;31.25;19.67;;;1.30;99.90;;;;;;5077490;28;20115;-80
2023/03/10 08:14:23;;;;;;;33.85;20.85;;;1.40;99.90;;;;;;5060435;28;20066;-77
2023/03/10 08:16:49;;;;;;;30.42;19.05;;;1.30;99.90;;;;;;5080600;28;20048;-78
2023/03/10 08:19:15;;;;;;;32.83;20.92;;;1.40;99.90;;;;;;5076522;28;20048;-77
2023/03/10 08:21:42;;;;;;;29.88;20.15;;;1.40;99.90;;;;;;5072362;28;20380;-77
2023/03/10 08:24:09;;;;;;;27.45;17.15;;;2.20;99.90;;;;;;5080997;28;20040;-78
2023/03/10 08:26:34;;;;;;;30.33;20.23;;;1.50;99.90;;;;;;5084172;28;20503;-82
2023/03/10 08:29:00;;;;;;;30.35;19.52;;;1.50;99.90;;;;;;5081798;28;20044;-79
2023/03/10 08:31:26;;;;;;;34.25;21.67;;;1.40;99.90;;;;;;5064480;28;20134;-77
2023/03/10 08:33:56;;;;;;;30.25;19.80;;;1.40;99.90;;;;;;5086284;28;20463;-81
2023/03/10 08:36:25;;;;;;;28.25;18.58;;;1.50;99.90;;;;;;5084438;28;20055;-77
2023/03/10 08:38:52;;;;;;;29.33;18.27;;;1.60;99.90;;;;;;5073743;28;20127;-81
2023/03/10 08:41:24;;;;;;;30.73;19.48;;;1.50;99.90;;;;;;5085251;28;20044;-83
2023/03/10 08:43:51;;;;;;;21.52;14.07;;;1.50;99.90;;;;;;5082065;28;20047;-82
2023/03/10 08:46:19;;;;;;;26.52;18.98;;;1.60;99.90;;;;;;5080113;28;20099;-82
2023/03/10 08:48:45;;;;;;;25.15;16.88;;;1.80;99.90;;;;;;5073094;28;20044;-82
2023/03/10 08:51:12;;;;;;;29.25;19.23;;;1.60;99.90;;;;;;5074456;28;20048;-81
2023/03/10 08:53:38;;;;;;;26.75;17.42;;;1.60;99.90;;;;;;5076909;28;20151;-78
2023/03/10 08:56:05;;;;;;;18.58;10.57;;;1.50;99.90;;;;;;5075402;28;20400;-81
2023/03/10 08:58:30;;;;;;;25.90;17.30;;;1.70;99.90;;;;;;5076917;28;20530;-81
2023/03/10 09:00:56;;;;;;;26.58;17.73;;;1.70;99.90;;;;;;5058997;28;20116;-79
2023/03/10 09:03:22;;;;;;;23.65;15.40;;;1.60;99.90;;;;;;5079124;28;20177;-79
2023/03/10 09:05:48;;;;;;;22.02;14.38;;;1.80;99.90;;;;;;5081796;28;20510;-78
2023/03/10 09:08:14;;;;;;;26.85;18.42;;;1.90;99.90;;;;;;5075345;28;20048;-76
2023/03/10 09:10:41;;;;;;;23.95;16.58;;;1.90;99.90;;;;;;5080790;28;20046;-78
2023/03/10 09:13:08;;;;;;;27.60;18.63;;;1.90;99.90;;;;;;5072031;28;20044;-76
2023/03/10 09:15:39;;;;;;;25.95;16.45;;;1.80;99.90;;;;;;5078097;28;20055;-78
2023/03/10 09:18:07;;;;;;;24.35;17.42;;;1.80;99.90;;;;;;5063075;28;20102;-78
2023/03/10 09:20:32;;;;;;;20.70;12.32;;;1.90;99.90;;;;;;5076849;28;20580;-77
2023/03/10 09:22:58;;;;;;;24.42;16.85;;;1.90;99.90;;;;;;5075571;28;20044;-77
2023/03/10 09:25:24;;;;;;;24.20;15.70;;;1.80;99.90;;;;;;5081146;28;20047;-84
2023/03/10 09:27:50;;;;;;;26.30;18.63;;;1.80;99.90;;;;;;5081571;28;20426;-77
2023/03/10 09:30:16;;;;;;;30.08;20.50;;;1.80;99.90;;;;;;5077564;28;20048;-81
2023/03/10 09:32:43;;;;;;;30.48;20.23;;;1.70;99.90;;;;;;5069386;28;20044;-79
2023/03/10 09:35:10;;;;;;;28.85;19.70;;;1.70;99.90;;;;;;5076758;28;20049;-80
2023/03/10 09:37:37;;;;;;;27.98;19.80;;;1.60;99.90;;;;;;5085154;28;20062;-79
2023/03/10 09:40:04;;;;;;;25.88;17.13;;;1.70;99.90;;;;;;5077100;28;20551;-78
2023/03/10 09:42:40;;;;;;;29.27;19.55;;;1.80;99.90;;;;;;5082106;28;20056;-84
2023/03/10 09:45:11;;;;;;;29.08;19.23;;;1.70;99.90;;;;;;5077987;28;20061;-79
2023/03/10 09:47:56;;;;;;;29.50;20.25;;;1.70;99.90;;;;;;5084071;28;20036;-78
2023/03/10 09:50:45;;;;;;;19.02;10.52;;;1.80;99.90;;;;;;5083813;28;20045;-78
2023/03/10 09:53:19;;;;;;;26.60;18.05;;;1.80;99.90;;;;;;5082306;28;20068;-78
2023/03/10 09:55:45;;;;;;;29.25;20.38;;;1.70;99.90;;;;;;5078989;28;20048;-83
2023/03/10 09:58:34;;;;;;;31.73;21.95;;;1.70;99.90;;;;;;5081635;28;20498;-80
2023/03/10 10:01:02;;;;;;;28.80;19.60;;;1.60;99.90;;;;;;5083941;28;20051;-81
2023/03/10 10:03:44;;;;;;;27.58;18.77;;;1.70;99.90;;;;;;5074983;28;20048;-77
2023/03/10 10:06:18;;;;;;;20.80;11.43;;;1.80;99.90;;;;;;5088793;28;20048;-77
2023/03/10 10:08:52;;;;;;;24.00;16.23;;;1.90;99.90;;;;;;5071661;28;20066;-77
2023/03/10 10:11:18;;;;;;;28.20;19.50;;;2.00;99.90;;;;;;5077763;28;20484;-77
2023/03/10 10:13:44;;;;;;;27.75;19.20;;;1.90;99.90;;;;;;5080376;28;20049;-78
2023/03/10 10:16:35;;;;;;;26.33;17.30;;;1.80;99.90;;;;;;5062553;28;20049;-77
2023/03/10 10:19:18;;;;;;;25.05;18.30;;;1.80;99.90;;;;;;5076788;28;20403;-79
2023/03/10 10:22:15;;;;;;;22.92;14.70;;;1.70;99.90;;;;;;5098950;28;20055;-76
2023/03/10 10:25:20;;;;;;;22.38;14.43;;;1.80;99.90;;;;;;5078983;28;20194;-78
2023/03/10 10:27:49;;;;;;;29.02;19.80;;;1.80;99.90;;;;;;5080416;28;20131;-74
2023/03/10 10:30:34;;;;;;;35.53;24.40;;;1.70;99.90;;;;;;5060416;28;20455;-77
2023/03/10 10:33:06;;;;;;;25.23;15.52;;;1.60;99.90;;;;;;5075156;28;20703;-77
2023/03/10 10:35:38;;;;;;;28.80;21.13;;;1.70;99.90;;;;;;5083174;28;20439;-76
2023/03/10 10:38:09;;;;;;;30.92;21.08;;;1.80;99.90;;;;;;5083560;28;20052;-78
2023/03/10 10:40:47;;;;;;;30.25;20.42;;;1.80;99.90;;;;;;5083387;28;20056;-78
2023/03/10 10:43:18;;;;;;;31.15;21.98;;;1.90;99.90;;;;;;5085667;28;20455;-77
2023/03/10 10:45:49;;;;;;;27.58;19.00;;;1.80;99.90;;;;;;5083266;28;20056;-77
2023/03/10 10:48:36;;;;;;;29.50;19.77;;;1.90;99.90;;;;;;5066389;28;20472;-76
2023/03/10 10:51:03;;;;;;;21.33;12.40;;;1.90;99.90;;;;;;5082251;28;20136;-75
2023/03/10 10:53:34;;;;;;;19.80;13.38;;;1.80;99.90;;;;;;5083892;28;20047;-76
2023/03/10 10:56:14;;;;;;;28.10;19.20;;;1.80;99.90;;;;;;5068031;28;20059;-75
2023/03/10 10:58:42;;;;;;;30.60;22.58;;;1.90;99.90;;;;;;5101362;28;20451;-75
2023/03/10 11:01:13;;;;;;;29.58;20.63;;;1.80;99.90;;;;;;5078147;28;20052;-76
2023/03/10 11:03:42;;;;;;;29.88;20.05;;;1.70;99.90;;;;;;5081621;28;20070;-76
2023/03/10 11:06:28;;;;;;;29.02;19.88;;;1.70;99.90;;;;;;5079706;28;20040;-76
2023/03/10 11:09:10;;;;;;;34.95;24.38;;;1.60;99.90;;;;;;5079563;28;20044;-75
2023/03/10 11:12:08;;;;;;;26.20;15.10;;;1.60;99.90;;;;;;5076168;28;20127;-76
2023/03/10 11:15:02;;;;;;;29.88;20.55;;;1.60;99.90;;;;;;5015793;28;20054;-77
2023/03/10 11:17:59;;;;;;;28.65;18.00;;;1.60;99.90;;;;;;5071531;28;20079;-76
2023/03/10 11:20:51;;;;;;;30.10;21.90;;;1.60;99.90;;;;;;5080449;28;20059;-78
2023/03/10 11:24:01;;;;;;;34.37;23.47;;;1.70;99.90;;;;;;5075927;28;20084;-79
2023/03/10 11:26:53;;;;;;;26.77;18.63;;;1.60;99.90;;;;;;5052786;28;20365;-78
2023/03/10 11:29:51;;;;;;;28.75;20.02;;;1.70;99.90;;;;;;5075856;28;20061;-77
2023/03/10 11:32:55;;;;;;;31.10;20.95;;;1.70;99.90;;;;;;5071648;28;20476;-76
2023/03/10 11:35:31;;;;;;;33.03;21.80;;;1.70;99.90;;;;;;5066844;28;20128;-76
2023/03/10 11:38:18;;;;;;;27.75;19.00;;;1.70;99.90;;;;;;5067635;28;20056;-77
2023/03/10 11:40:56;;;;;;;31.70;21.65;;;1.80;99.90;;;;;;5082076;28;20486;-76
2023/03/10 11:43:46;;;;;;;33.17;21.90;;;1.70;99.90;;;;;;5085495;28;20038;-76
2023/03/10 11:46:30;;;;;;;33.35;23.70;;;1.70;99.90;;;;;;5084885;28;20044;-76
2023/03/10 11:49:13;;;;;;;36.72;24.73;;;1.70;99.90;;;;;;5084423;28;20048;-76
2023/03/10 11:51:57;;;;;;;31.48;21.42;;;1.60;99.90;;;;;;5081005;28;20479;-75
2023/03/10 11:54:25;;;;;;;33.72;22.08;;;1.60;99.90;;;;;;5068504;28;20048;-75
2023/03/10 11:56:52;;;;;;;35.47;24.95;;;1.60;99.90;;;;;;5075826;28;20040;-77
2023/03/10 11:59:22;;;;;;;37.45;25.00;;;1.70;99.90;;;;;;5073710;28;20044;-76
2023/03/10 12:01:55;;;;;;;38.30;25.27;;;1.70;99.90;;;;;;5065842;28;20123;-76
2023/03/10 12:04:34;;;;;;;23.13;15.27;;;1.70;99.90;;;;;;5077418;28;20045;-75
2023/03/10 12:07:19;;;;;;;35.33;23.40;;;1.80;99.90;;;;;;5077912;28;20120;-75
2023/03/10 12:09:50;;;;;;;34.00;21.33;;;1.60;99.90;;;;;;5073090;28;20051;-78
2023/03/10 12:12:21;;;;;;;34.53;22.67;;;1.50;99.90;;;;;;5065190;28;20048;-75
2023/03/10 12:14:47;;;;;;;35.53;23.43;;;1.60;99.90;;;;;;5074115;28;20651;-75
2023/03/10 12:17:16;;;;;;;37.72;25.33;;;2.00;99.90;;;;;;5069339;28;20064;-77
2023/03/10 12:20:21;;;;;;;39.20;25.95;;;1.60;99.90;;;;;;5067597;28;20265;-75
2023/03/10 12:22:52;;;;;;;38.13;25.27;;;1.70;99.90;;;;;;5068126;28;20132;-76
2023/03/10 12:25:27;;;;;;;28.80;18.58;;;1.70;99.90;;;;;;5073686;28;20049;-74
2023/03/10 12:28:14;;;;;;;31.30;21.23;;;1.90;99.90;;;;;;5065052;28;20090;-74
2023/03/10 12:30:57;;;;;;;33.65;21.90;;;1.90;99.90;;;;;;5079310;28;20044;-77
2023/03/10 12:33:29;;;;;;;33.10;22.83;;;1.80;99.90;;;;;;5075872;28;20527;-75
2023/03/10 12:36:23;;;;;;;45.88;31.75;;;2.10;99.90;;;;;;5074711;28;20051;-76
2023/03/10 12:38:53;;;;;;;32.17;21.25;;;1.80;99.90;;;;;;5080032;28;20064;-75
2023/03/10 12:41:25;;;;;;;35.60;23.38;;;1.90;99.90;;;;;;5078332;28;20047;-78
2023/03/10 12:43:56;;;;;;;36.33;24.33;;;1.90;99.90;;;;;;5080546;28;20051;-76
2023/03/10 12:46:59;;;;;;;28.52;17.90;;;1.80;99.90;;;;;;5078617;28;20059;-78
2023/03/10 12:49:40;;;;;;;36.60;24.58;;;1.80;99.90;;;;;;5081787;28;20079;-77